createdAt,value
2018-12-27T00:01:14.382Z,98.03
2018-12-27T00:03:41.863Z,98.75
2018-12-27T00:06:09.395Z,99.85
2018-12-27T00:08:36.919Z,96.76
2018-12-27T00:11:04.484Z,97.96
2018-12-27T00:13:32.193Z,98.71
2018-12-27T00:15:59.854Z,97.67
2018-12-27T00:18:27.509Z,96.10
2018-12-27T00:20:55.124Z,97.02
2018-12-27T00:23:22.629Z,97.67
2018-12-27T00:25:50.126Z,98.74
2018-12-27T00:28:17.656Z,99.09
2018-12-27T00:30:45.170Z,97.68
2018-12-27T00:33:12.705Z,100.00
2018-12-27T00:35:40.237Z,99.14
2018-12-27T00:38:07.819Z,97.93
2018-12-27T00:40:35.311Z,99.87
2018-12-27T00:43:02.806Z,98.74
2018-12-27T00:45:30.337Z,99.43
2018-12-27T00:47:57.854Z,99.55
2018-12-27T00:50:25.411Z,99.84
2018-12-27T00:52:53.137Z,100.00
2018-12-27T00:55:20.917Z,100.00
2018-12-27T00:57:48.581Z,99.40
2018-12-27T01:00:16.198Z,96.98
2018-12-27T01:02:43.712Z,98.54
2018-12-27T01:05:11.267Z,97.21
2018-12-27T01:07:38.787Z,99.44
2018-12-27T01:10:06.457Z,100.00
2018-12-27T01:12:34.062Z,100.00
2018-12-27T01:15:01.574Z,100.00
2018-12-27T01:17:29.166Z,100.00
2018-12-27T01:19:56.716Z,100.00
2018-12-27T01:22:24.307Z,99.77
2018-12-27T01:24:51.956Z,99.17
2018-12-27T01:27:19.596Z,98.99
2018-12-27T01:29:47.183Z,99.91
2018-12-27T01:32:14.660Z,99.50
2018-12-27T01:34:42.214Z,99.62
2018-12-27T01:37:09.831Z,100.00
2018-12-27T01:39:37.516Z,100.00
2018-12-27T01:42:05.036Z,100.00
2018-12-27T01:44:32.638Z,100.00
2018-12-27T01:47:00.335Z,100.00
2018-12-27T01:49:27.885Z,100.00
2018-12-27T01:51:55.498Z,100.00
2018-12-27T01:54:23.001Z,100.00
2018-12-27T01:56:50.565Z,100.00
2018-12-27T01:59:18.061Z,100.00
2018-12-27T02:01:45.623Z,99.74
2018-12-27T02:04:13.180Z,99.24
2018-12-27T02:06:40.703Z,99.52
2018-12-27T02:09:08.360Z,98.47
2018-12-27T02:11:35.879Z,100.00
2018-12-27T02:14:03.612Z,100.00
2018-12-27T02:16:31.277Z,100.00
2018-12-27T02:18:58.808Z,100.00
2018-12-27T02:21:26.425Z,99.49
2018-12-27T02:23:53.900Z,96.90
2018-12-27T02:26:21.535Z,97.85
2018-12-27T02:28:49.083Z,98.91
2018-12-27T02:31:16.601Z,97.17
2018-12-27T02:33:44.124Z,97.25
2018-12-27T02:36:11.672Z,98.02
2018-12-27T02:38:39.175Z,98.28
2018-12-27T02:41:06.727Z,97.08
2018-12-27T02:43:34.255Z,96.35
2018-12-27T02:46:01.743Z,98.75
2018-12-27T02:48:29.311Z,97.62
2018-12-27T02:50:56.803Z,98.18
2018-12-27T02:53:24.425Z,97.06
2018-12-27T02:55:51.952Z,99.04
2018-12-27T02:58:19.471Z,98.44
2018-12-27T03:00:47.046Z,99.13
2018-12-27T03:03:14.560Z,98.60
2018-12-27T03:05:42.158Z,97.64
2018-12-27T03:08:09.823Z,97.14
2018-12-27T03:10:37.360Z,96.05
2018-12-27T03:13:05.049Z,97.30
2018-12-27T03:15:32.881Z,96.19
2018-12-27T03:18:00.359Z,96.08
2018-12-27T03:20:27.901Z,97.10
2018-12-27T03:22:55.594Z,96.18
2018-12-27T03:25:23.235Z,94.95
2018-12-27T03:27:50.756Z,97.41
2018-12-27T03:30:18.252Z,96.09
2018-12-27T03:32:45.793Z,93.12
2018-12-27T03:35:13.402Z,94.67
2018-12-27T03:37:40.873Z,96.55
2018-12-27T03:40:08.400Z,95.78
2018-12-27T03:42:35.854Z,94.84
2018-12-27T03:45:03.462Z,95.25
2018-12-27T03:47:31.021Z,95.47
2018-12-27T03:49:58.550Z,96.72
2018-12-27T03:52:26.062Z,96.09
2018-12-27T03:54:53.687Z,95.38
2018-12-27T03:57:21.207Z,96.70
2018-12-27T03:59:48.896Z,94.83
2018-12-27T04:02:16.427Z,95.34
2018-12-27T04:04:44.026Z,94.82
2018-12-27T04:07:11.570Z,94.28
2018-12-27T04:09:40.139Z,93.03
2018-12-27T04:12:07.815Z,87.42
2018-12-27T04:14:35.444Z,86.92
2018-12-27T04:17:02.926Z,88.14
2018-12-27T04:19:30.415Z,87.84
2018-12-27T04:21:57.923Z,90.12
2018-12-27T04:24:25.574Z,89.03
2018-12-27T04:26:53.151Z,91.72
2018-12-27T04:29:20.633Z,93.35
2018-12-27T04:31:48.663Z,94.22
2018-12-27T04:34:16.929Z,92.32
2018-12-27T04:36:44.531Z,89.02
2018-12-27T04:39:12.101Z,90.84
2018-12-27T04:41:40.011Z,89.41
2018-12-27T04:44:07.729Z,91.36
2018-12-27T04:46:35.238Z,90.04
2018-12-27T04:49:02.734Z,91.03
2018-12-27T04:51:30.712Z,88.76
2018-12-27T04:53:58.333Z,90.27
2018-12-27T04:56:25.932Z,91.20
2018-12-27T04:58:53.640Z,90.47
2018-12-27T05:01:21.364Z,90.48
2018-12-27T05:03:49.055Z,90.85
2018-12-27T05:06:16.736Z,89.11
2018-12-27T05:08:44.531Z,90.70
2018-12-27T05:11:12.450Z,90.99
2018-12-27T05:13:41.361Z,92.84
2018-12-27T05:16:09.275Z,93.14
2018-12-27T05:18:37.243Z,93.42
2018-12-27T05:21:05.264Z,93.28
2018-12-27T05:23:33.102Z,93.08
2018-12-27T05:26:00.866Z,91.57
2018-12-27T05:28:28.800Z,92.37
2018-12-27T05:30:56.846Z,90.49
2018-12-27T05:33:24.671Z,89.40
2018-12-27T05:35:52.424Z,91.45
2018-12-27T05:38:20.429Z,89.97
2018-12-27T05:40:48.257Z,88.66
2018-12-27T05:43:16.092Z,89.22
2018-12-27T05:45:43.785Z,90.32
2018-12-27T05:48:11.553Z,90.12
2018-12-27T05:50:39.546Z,90.91
2018-12-27T05:53:07.383Z,91.34
2018-12-27T05:55:35.145Z,91.75
2018-12-27T05:58:02.986Z,91.04
2018-12-27T06:00:30.646Z,92.27
2018-12-27T06:02:58.325Z,93.16
2018-12-27T06:05:26.192Z,92.63
2018-12-27T06:07:53.885Z,92.45
2018-12-27T06:10:21.570Z,93.05
2018-12-27T06:12:49.463Z,93.92
2018-12-27T06:15:17.200Z,93.83
2018-12-27T06:17:44.841Z,93.57
2018-12-27T06:20:12.637Z,93.68
2018-12-27T06:22:40.414Z,94.06
2018-12-27T06:25:08.209Z,94.54
2018-12-27T06:27:35.947Z,94.12
2018-12-27T06:30:04.374Z,93.15
2018-12-27T06:32:32.195Z,92.78
2018-12-27T06:34:59.993Z,93.92
2018-12-27T06:37:27.842Z,92.82
2018-12-27T06:39:55.656Z,93.60
2018-12-27T06:42:23.561Z,93.72
2018-12-27T06:44:51.251Z,94.07
2018-12-27T06:47:19.056Z,93.23
2018-12-27T06:49:46.663Z,93.46
2018-12-27T06:52:14.421Z,93.02
2018-12-27T06:54:42.201Z,92.58
2018-12-27T06:57:09.952Z,92.59
2018-12-27T06:59:37.747Z,92.98
2018-12-27T07:02:05.611Z,92.65
2018-12-27T07:04:33.280Z,93.06
2018-12-27T07:07:01.034Z,93.27
2018-12-27T07:09:28.644Z,93.03
2018-12-27T07:11:56.527Z,93.07
2018-12-27T07:14:24.276Z,92.60
2018-12-27T07:16:52.463Z,92.21
2018-12-27T07:19:20.368Z,93.03
2018-12-27T07:21:48.114Z,93.26
2018-12-27T07:24:15.711Z,91.99
2018-12-27T07:26:44.469Z,92.66
2018-12-27T07:29:12.336Z,91.67
2018-12-27T07:31:39.836Z,91.87
2018-12-27T07:34:07.595Z,92.82
2018-12-27T07:36:35.148Z,92.66
2018-12-27T07:39:05.253Z,93.83
2018-12-27T07:41:32.784Z,93.61
2018-12-27T07:44:00.594Z,92.88
2018-12-27T07:46:28.259Z,92.09
2018-12-27T07:48:55.832Z,92.17
2018-12-27T07:51:23.507Z,92.80
2018-12-27T07:53:51.078Z,92.35
2018-12-27T07:56:18.690Z,92.65
2018-12-27T07:58:46.226Z,91.99
2018-12-27T08:01:13.800Z,92.24
2018-12-27T08:03:41.447Z,92.62
2018-12-27T08:06:08.968Z,91.89
2018-12-27T08:08:36.525Z,92.46
2018-12-27T08:11:04.238Z,92.26
2018-12-27T08:13:31.768Z,90.48
2018-12-27T08:15:59.444Z,91.46
2018-12-27T08:18:27.099Z,91.04
2018-12-27T08:20:54.667Z,90.21
2018-12-27T08:23:22.439Z,90.46
2018-12-27T08:25:50.066Z,90.72
2018-12-27T08:28:17.579Z,90.12
2018-12-27T08:30:45.226Z,90.74
2018-12-27T08:33:12.764Z,91.20
2018-12-27T08:35:40.700Z,88.93
2018-12-27T08:38:08.207Z,89.66
2018-12-27T08:40:35.715Z,90.75
2018-12-27T08:43:03.435Z,89.69
2018-12-27T08:45:31.106Z,89.86
2018-12-27T08:47:58.724Z,90.06
2018-12-27T08:50:26.282Z,90.17
2018-12-27T08:52:53.970Z,89.86
2018-12-27T08:55:21.870Z,89.41
2018-12-27T08:57:50.196Z,89.56
2018-12-27T09:00:18.027Z,89.10
2018-12-27T09:02:46.148Z,88.68
2018-12-27T09:05:18.846Z,88.32
2018-12-27T09:07:43.402Z,88.59
2018-12-27T09:10:11.500Z,88.68
2018-12-27T09:12:39.085Z,89.00
2018-12-27T09:15:06.973Z,88.53
2018-12-27T09:17:34.798Z,88.44
2018-12-27T09:20:02.592Z,88.15
2018-12-27T09:22:30.646Z,87.86
2018-12-27T09:24:58.322Z,88.09
2018-12-27T09:27:25.945Z,87.42
2018-12-27T09:29:53.833Z,86.58
2018-12-27T09:32:21.718Z,87.21
2018-12-27T09:34:49.520Z,86.65
2018-12-27T09:37:17.179Z,87.62
2018-12-27T09:39:44.773Z,87.90
2018-12-27T09:42:12.327Z,88.22
2018-12-27T09:44:39.813Z,86.42
2018-12-27T09:47:07.248Z,87.85
2018-12-27T09:49:34.805Z,86.90
2018-12-27T09:52:02.507Z,86.37
2018-12-27T09:54:30.048Z,86.62
2018-12-27T09:56:57.551Z,87.75
2018-12-27T09:59:25.032Z,86.90
2018-12-27T10:01:52.639Z,86.77
2018-12-27T10:04:21.038Z,87.11
2018-12-27T10:06:48.481Z,86.46
2018-12-27T10:09:16.032Z,85.93
2018-12-27T10:11:43.627Z,87.19
2018-12-27T10:14:11.133Z,85.49
2018-12-27T10:16:38.656Z,85.52
2018-12-27T10:19:06.203Z,85.32
2018-12-27T10:21:33.657Z,87.04
2018-12-27T10:24:01.211Z,85.92
2018-12-27T10:26:28.821Z,87.98
2018-12-27T10:28:56.349Z,87.45
2018-12-27T10:31:23.988Z,88.15
2018-12-27T10:33:51.620Z,88.20
2018-12-27T10:36:19.320Z,87.40
2018-12-27T10:38:46.941Z,87.13
2018-12-27T10:41:14.512Z,87.85
2018-12-27T10:43:42.044Z,86.80
2018-12-27T10:46:09.536Z,87.61
2018-12-27T10:48:37.086Z,87.89
2018-12-27T10:51:04.696Z,87.55
2018-12-27T10:53:32.208Z,87.51
2018-12-27T10:56:00.496Z,87.03
2018-12-27T10:58:28.219Z,87.17
2018-12-27T11:00:55.861Z,87.82
2018-12-27T11:03:30.305Z,86.40
2018-12-27T11:05:53.137Z,86.93
2018-12-27T11:08:20.755Z,87.76
2018-12-27T11:10:48.229Z,86.65
2018-12-27T11:13:15.835Z,87.24
2018-12-27T11:15:43.554Z,85.37
2018-12-27T11:18:11.187Z,85.82
2018-12-27T11:20:39.210Z,83.78
2018-12-27T11:23:07.118Z,85.32
2018-12-27T11:25:35.129Z,83.83
2018-12-27T11:28:03.091Z,84.16
2018-12-27T11:30:30.816Z,84.16
2018-12-27T11:32:59.306Z,85.19
2018-12-27T11:35:28.335Z,84.30
2018-12-27T11:37:56.403Z,84.53
2018-12-27T11:40:24.221Z,84.40
2018-12-27T11:42:52.158Z,85.16
2018-12-27T11:45:20.269Z,85.24
2018-12-27T11:47:48.072Z,84.05
2018-12-27T11:50:15.927Z,83.58
2018-12-27T11:52:43.550Z,83.37
2018-12-27T11:55:11.300Z,84.83
2018-12-27T11:57:39.661Z,85.52
2018-12-27T12:00:09.251Z,85.29
2018-12-27T12:02:37.078Z,85.58
2018-12-27T12:05:05.003Z,84.85
2018-12-27T12:07:32.920Z,85.96
2018-12-27T12:10:00.612Z,85.29
2018-12-27T12:12:28.524Z,86.06
2018-12-27T12:14:56.557Z,85.31
2018-12-27T12:17:24.486Z,86.06
2018-12-27T12:19:52.377Z,86.95
2018-12-27T12:22:20.304Z,86.23
2018-12-27T12:24:48.208Z,86.09
2018-12-27T12:27:16.270Z,86.89
2018-12-27T12:29:44.045Z,86.98
2018-12-27T12:32:12.119Z,86.31
2018-12-27T12:34:40.364Z,86.43
2018-12-27T12:37:13.890Z,86.37
2018-12-27T12:39:38.077Z,87.26
2018-12-27T12:42:06.055Z,86.19
2018-12-27T12:44:33.835Z,86.50
2018-12-27T12:47:02.156Z,85.92
2018-12-27T12:49:30.052Z,85.58
2018-12-27T12:51:58.256Z,86.29
2018-12-27T12:54:26.050Z,86.87
2018-12-27T12:56:53.852Z,87.83
2018-12-27T12:59:21.953Z,88.45
2018-12-27T13:01:49.812Z,88.05
2018-12-27T13:04:17.811Z,87.42
2018-12-27T13:06:45.636Z,87.88
2018-12-27T13:09:13.833Z,89.07
2018-12-27T13:11:41.475Z,87.84
2018-12-27T13:14:09.275Z,88.04
2018-12-27T13:16:37.140Z,87.62
2018-12-27T13:19:04.894Z,87.60
2018-12-27T13:21:32.672Z,88.13
2018-12-27T13:24:00.626Z,88.55
2018-12-27T13:26:28.743Z,88.43
2018-12-27T13:28:56.739Z,89.62
2018-12-27T13:31:24.861Z,88.92
2018-12-27T13:33:52.779Z,88.70
2018-12-27T13:36:25.356Z,88.12
2018-12-27T13:38:50.936Z,86.70
2018-12-27T13:41:18.984Z,86.10
2018-12-27T13:43:47.256Z,86.82
2018-12-27T13:46:15.228Z,86.23
2018-12-27T13:48:43.116Z,85.80
2018-12-27T13:51:11.484Z,87.08
2018-12-27T13:53:40.434Z,87.52
2018-12-27T13:56:08.727Z,87.20
2018-12-27T13:58:36.832Z,87.82
2018-12-27T14:01:04.959Z,87.60
2018-12-27T14:03:33.507Z,87.52
2018-12-27T14:06:01.698Z,87.37
2018-12-27T14:08:29.528Z,86.81
2018-12-27T14:10:57.956Z,87.71
2018-12-27T14:13:26.213Z,87.62
2018-12-27T14:15:54.014Z,88.31
2018-12-27T14:18:21.786Z,89.28
2018-12-27T14:20:49.680Z,89.19
2018-12-27T14:23:17.577Z,89.12
2018-12-27T14:25:45.283Z,89.17
2018-12-27T14:28:13.606Z,87.98
2018-12-27T14:30:41.547Z,87.83
2018-12-27T14:33:09.401Z,88.00
2018-12-27T14:35:37.279Z,89.46
2018-12-27T14:38:05.163Z,88.78
2018-12-27T14:40:34.069Z,89.84
2018-12-27T14:43:01.869Z,90.06
2018-12-27T14:45:29.831Z,90.72
2018-12-27T14:47:57.733Z,91.01
2018-12-27T14:50:25.593Z,89.62
2018-12-27T14:52:53.311Z,90.36
2018-12-27T14:55:21.106Z,91.41
2018-12-27T14:57:48.931Z,90.87
2018-12-27T15:00:16.797Z,91.97
2018-12-27T15:02:44.668Z,92.25
2018-12-27T15:05:12.561Z,92.53
2018-12-27T15:07:40.382Z,91.92
2018-12-27T15:10:09.146Z,91.94
2018-12-27T15:12:37.019Z,92.28
2018-12-27T15:15:04.933Z,90.98
2018-12-27T15:17:32.587Z,92.51
2018-12-27T15:20:00.455Z,90.88
2018-12-27T15:22:28.437Z,90.83
2018-12-27T15:24:56.455Z,90.08
2018-12-27T15:27:24.205Z,89.04
2018-12-27T15:29:52.050Z,89.83
2018-12-27T15:32:20.056Z,89.07
2018-12-27T15:34:47.928Z,90.38
2018-12-27T15:37:15.858Z,89.80
2018-12-27T15:39:43.754Z,90.20
2018-12-27T15:42:11.701Z,90.45
2018-12-27T15:44:39.532Z,91.27
2018-12-27T15:47:07.787Z,91.39
2018-12-27T15:49:35.707Z,91.97
2018-12-27T15:52:03.500Z,91.43
2018-12-27T15:54:31.260Z,91.86
2018-12-27T15:56:58.947Z,91.96
2018-12-27T15:59:26.636Z,91.01
2018-12-27T16:01:54.481Z,90.54
2018-12-27T16:04:22.262Z,91.50
2018-12-27T16:06:49.941Z,93.02
2018-12-27T16:09:17.633Z,92.55
2018-12-27T16:11:45.455Z,91.65
2018-12-27T16:14:13.212Z,91.73
2018-12-27T16:16:40.907Z,91.74
2018-12-27T16:19:08.702Z,90.80
2018-12-27T16:21:36.480Z,90.00
2018-12-27T16:24:04.314Z,89.75
2018-12-27T16:26:32.215Z,89.86
2018-12-27T16:29:00.065Z,89.97
2018-12-27T16:31:27.898Z,89.04
2018-12-27T16:33:55.782Z,89.95
2018-12-27T16:36:23.641Z,89.93
2018-12-27T16:38:51.776Z,91.14
2018-12-27T16:41:19.820Z,90.93
2018-12-27T16:43:47.791Z,91.72
2018-12-27T16:46:16.195Z,91.61
2018-12-27T16:48:45.402Z,90.94
2018-12-27T16:51:13.692Z,90.69
2018-12-27T16:53:42.151Z,90.82
2018-12-27T16:56:10.149Z,90.41
2018-12-27T16:58:39.614Z,92.07
2018-12-27T17:01:07.873Z,92.14
2018-12-27T17:03:35.650Z,91.57
2018-12-27T17:06:04.482Z,93.76
2018-12-27T17:08:32.804Z,94.40
2018-12-27T17:11:01.335Z,92.06
2018-12-27T17:13:29.272Z,92.33
2018-12-27T17:15:57.220Z,92.51
2018-12-27T17:18:25.602Z,92.41
2018-12-27T17:20:53.859Z,91.75
2018-12-27T17:23:22.225Z,92.08
2018-12-27T17:25:50.008Z,91.65
2018-12-27T17:28:17.942Z,92.71
2018-12-27T17:30:45.719Z,92.16
2018-12-27T17:33:13.467Z,93.20
2018-12-27T17:35:42.551Z,93.46
2018-12-27T17:38:10.464Z,92.42
2018-12-27T17:40:38.143Z,93.22
2018-12-27T17:43:05.798Z,94.69
2018-12-27T17:45:33.605Z,94.04
2018-12-27T17:48:01.725Z,93.77
2018-12-27T17:50:29.453Z,94.83
2018-12-27T17:52:56.966Z,95.85
2018-12-27T17:55:25.415Z,93.44
2018-12-27T17:57:53.761Z,93.87
2018-12-27T18:00:21.664Z,94.13
2018-12-27T18:02:49.328Z,95.05
2018-12-27T18:05:17.009Z,96.77
2018-12-27T18:07:44.980Z,96.79
2018-12-27T18:10:12.837Z,97.12
2018-12-27T18:12:40.830Z,96.88
2018-12-27T18:15:08.573Z,97.98
2018-12-27T18:17:36.217Z,98.72
2018-12-27T18:20:04.440Z,96.94
2018-12-27T18:22:32.302Z,96.92
2018-12-27T18:25:00.157Z,97.88
2018-12-27T18:27:28.030Z,98.19
2018-12-27T18:29:55.845Z,98.16
2018-12-27T18:32:24.254Z,96.71
2018-12-27T18:34:54.575Z,97.50
2018-12-27T18:37:22.737Z,98.61
2018-12-27T18:39:50.714Z,99.47
2018-12-27T18:42:18.531Z,99.93
2018-12-27T18:44:46.162Z,98.88
2018-12-27T18:47:13.851Z,99.30
2018-12-27T18:49:41.736Z,99.31
2018-12-27T18:52:09.686Z,98.85
2018-12-27T18:54:37.301Z,97.79
2018-12-27T18:57:05.521Z,99.31
2018-12-27T18:59:33.416Z,98.09
2018-12-27T19:02:01.226Z,97.35
2018-12-27T19:04:29.929Z,97.67
2018-12-27T19:06:57.674Z,97.53
2018-12-27T19:09:25.873Z,98.35
2018-12-27T19:12:29.759Z,98.53
2018-12-27T19:15:01.872Z,97.99
2018-12-27T19:17:38.516Z,98.53
2018-12-27T19:20:06.652Z,97.22
2018-12-27T19:22:48.995Z,98.49
2018-12-27T19:25:17.296Z,98.51
2018-12-27T19:27:45.117Z,100.00
2018-12-27T19:30:12.821Z,100.00
2018-12-27T19:32:40.754Z,100.00
2018-12-27T19:35:08.909Z,100.00
2018-12-27T19:37:36.819Z,99.79
2018-12-27T19:40:04.808Z,100.00
2018-12-27T19:42:32.747Z,99.94
2018-12-27T19:45:00.681Z,99.92
2018-12-27T19:47:28.572Z,100.00
2018-12-27T19:49:56.234Z,100.00
2018-12-27T19:52:24.067Z,100.00
2018-12-27T19:54:51.804Z,100.00
2018-12-27T19:57:19.619Z,100.00
2018-12-27T19:59:47.191Z,100.00
2018-12-27T20:02:15.026Z,100.00
2018-12-27T20:04:42.861Z,100.00
2018-12-27T20:07:10.604Z,100.00
2018-12-27T20:09:38.758Z,100.00
2018-12-27T20:12:06.584Z,100.00
2018-12-27T20:14:34.304Z,100.00
2018-12-27T20:17:02.037Z,100.00
2018-12-27T20:19:29.972Z,100.00
2018-12-27T20:21:57.893Z,100.00
2018-12-27T20:24:25.555Z,100.00
2018-12-27T20:26:53.504Z,100.00
2018-12-27T20:29:21.506Z,100.00
2018-12-27T20:31:49.364Z,99.44
2018-12-27T20:34:17.920Z,98.90
2018-12-27T20:36:45.879Z,99.04
2018-12-27T20:39:13.832Z,100.00
2018-12-27T20:41:41.530Z,100.00
2018-12-27T20:44:09.561Z,100.00
2018-12-27T20:46:37.387Z,100.00
2018-12-27T20:49:05.106Z,100.00
2018-12-27T20:51:32.725Z,100.00
2018-12-27T20:54:00.531Z,100.00
2018-12-27T20:56:28.689Z,99.19
2018-12-27T20:58:56.806Z,98.72
2018-12-27T21:01:24.735Z,99.94
2018-12-27T21:03:52.742Z,99.76
2018-12-27T21:06:20.479Z,100.00
2018-12-27T21:08:48.249Z,98.80
2018-12-27T21:11:16.092Z,94.80
2018-12-27T21:13:44.110Z,95.03
2018-12-27T21:16:11.918Z,96.73
2018-12-27T21:18:39.862Z,97.36
2018-12-27T21:21:07.641Z,96.46
2018-12-27T21:23:35.546Z,98.99
2018-12-27T21:26:03.350Z,99.39
2018-12-27T21:28:31.178Z,97.27
2018-12-27T21:30:59.077Z,94.31
2018-12-27T21:33:26.924Z,96.00
2018-12-27T21:35:54.705Z,98.49
2018-12-27T21:38:22.468Z,98.59
2018-12-27T21:40:50.539Z,98.50
2018-12-27T21:43:18.553Z,99.04
2018-12-27T21:45:46.648Z,99.73
2018-12-27T21:48:14.470Z,100.00
2018-12-27T21:50:42.646Z,99.98
2018-12-27T21:53:10.586Z,99.45
2018-12-27T21:55:38.241Z,98.08
2018-12-27T21:58:06.213Z,98.21
2018-12-27T22:00:33.873Z,99.55
2018-12-27T22:03:01.386Z,100.00
2018-12-27T22:05:28.972Z,100.00
2018-12-27T22:07:56.551Z,99.69
2018-12-27T22:10:24.427Z,100.00
2018-12-27T22:12:51.939Z,100.00
2018-12-27T22:15:19.500Z,100.00
2018-12-27T22:17:47.171Z,100.00
2018-12-27T22:20:14.737Z,100.00
2018-12-27T22:22:42.445Z,100.00
2018-12-27T22:25:10.041Z,100.00
2018-12-27T22:27:37.578Z,100.00
2018-12-27T22:30:06.142Z,100.00
2018-12-27T22:32:33.648Z,100.00
2018-12-27T22:35:01.240Z,100.00
2018-12-27T22:37:28.939Z,100.00
2018-12-27T22:39:56.489Z,100.00
2018-12-27T22:42:24.051Z,100.00
2018-12-27T22:44:51.560Z,100.00
2018-12-27T22:47:19.172Z,100.00
2018-12-27T22:49:46.847Z,100.00
2018-12-27T22:52:14.569Z,100.00
2018-12-27T22:54:42.211Z,100.00
2018-12-27T22:57:09.888Z,100.00
2018-12-27T22:59:37.386Z,100.00
2018-12-27T23:02:05.046Z,100.00
2018-12-27T23:04:32.560Z,100.00
2018-12-27T23:07:00.100Z,100.00
2018-12-27T23:09:27.631Z,100.00
2018-12-27T23:11:55.111Z,100.00
2018-12-27T23:14:22.880Z,100.00
2018-12-27T23:16:50.550Z,100.00
2018-12-27T23:19:18.035Z,100.00
2018-12-27T23:21:45.571Z,100.00
2018-12-27T23:24:13.088Z,100.00
2018-12-27T23:26:40.616Z,100.00
2018-12-27T23:29:08.118Z,100.00
2018-12-27T23:31:35.670Z,100.00
2018-12-27T23:34:03.193Z,100.00
2018-12-27T23:36:30.783Z,100.00
2018-12-27T23:38:58.486Z,100.00
2018-12-27T23:41:25.954Z,100.00
2018-12-27T23:43:53.578Z,100.00
2018-12-27T23:46:21.084Z,100.00
2018-12-27T23:48:48.711Z,100.00
2018-12-27T23:51:16.300Z,100.00
2018-12-27T23:53:43.824Z,100.00
2018-12-27T23:56:11.479Z,100.00
2018-12-27T23:58:39.216Z,100.00
